sensor_id;sensor_type;location;lat;lon;timestamp;temperature;humidity
65826;DHT22;52586;-43.152;172.732;2022-09-27T00:00:17;19.50;55.10
65826;DHT22;52586;-43.152;172.732;2022-09-27T00:02:48;19.50;55.30
65826;DHT22;52586;-43.152;172.732;2022-09-27T00:05:19;19.60;55.50
65826;DHT22;52586;-43.152;172.732;2022-09-27T00:07:49;19.60;55.60
65826;DHT22;52586;-43.152;172.732;2022-09-27T00:10:22;19.70;55.70
65826;DHT22;52586;-43.152;172.732;2022-09-27T00:12:53;19.70;55.70
65826;DHT22;52586;-43.152;172.732;2022-09-27T00:15:24;19.80;55.80
65826;DHT22;52586;-43.152;172.732;2022-09-27T00:17:54;19.80;55.80
65826;DHT22;52586;-43.152;172.732;2022-09-27T00:20:25;19.90;55.90
65826;DHT22;52586;-43.152;172.732;2022-09-27T00:22:56;20.00;56.10
65826;DHT22;52586;-43.152;172.732;2022-09-27T00:25:28;20.00;56.60
65826;DHT22;52586;-43.152;172.732;2022-09-27T00:27:59;20.00;56.10
65826;DHT22;52586;-43.152;172.732;2022-09-27T00:30:30;20.10;56.20
65826;DHT22;52586;-43.152;172.732;2022-09-27T00:33:01;20.10;56.10
65826;DHT22;52586;-43.152;172.732;2022-09-27T00:35:31;20.20;56.20
65826;DHT22;52586;-43.152;172.732;2022-09-27T00:38:02;20.20;56.20
65826;DHT22;52586;-43.152;172.732;2022-09-27T00:40:35;20.30;56.30
65826;DHT22;52586;-43.152;172.732;2022-09-27T00:43:15;20.30;56.30
65826;DHT22;52586;-43.152;172.732;2022-09-27T00:45:48;20.30;56.30
65826;DHT22;52586;-43.152;172.732;2022-09-27T00:48:24;20.40;56.40
65826;DHT22;52586;-43.152;172.732;2022-09-27T00:51:00;20.40;56.30
65826;DHT22;52586;-43.152;172.732;2022-09-27T00:53:35;20.50;56.30
65826;DHT22;52586;-43.152;172.732;2022-09-27T00:56:13;20.60;56.40
65826;DHT22;52586;-43.152;172.732;2022-09-27T00:58:49;20.60;56.30
65826;DHT22;52586;-43.152;172.732;2022-09-27T01:01:21;20.60;56.50
65826;DHT22;52586;-43.152;172.732;2022-09-27T01:03:54;20.70;56.50
65826;DHT22;52586;-43.152;172.732;2022-09-27T01:06:26;20.70;56.40
65826;DHT22;52586;-43.152;172.732;2022-09-27T01:08:57;20.80;56.40
65826;DHT22;52586;-43.152;172.732;2022-09-27T01:11:40;20.80;56.30
65826;DHT22;52586;-43.152;172.732;2022-09-27T01:14:40;20.90;56.40
65826;DHT22;52586;-43.152;172.732;2022-09-27T01:17:27;20.90;56.20
65826;DHT22;52586;-43.152;172.732;2022-09-27T01:20:25;21.00;56.10
65826;DHT22;52586;-43.152;172.732;2022-09-27T01:23:14;21.00;56.00
65826;DHT22;52586;-43.152;172.732;2022-09-27T01:26:00;21.00;55.90
65826;DHT22;52586;-43.152;172.732;2022-09-27T01:28:53;21.10;55.90
65826;DHT22;52586;-43.152;172.732;2022-09-27T01:31:30;21.10;55.90
65826;DHT22;52586;-43.152;172.732;2022-09-27T01:34:05;21.20;55.80
65826;DHT22;52586;-43.152;172.732;2022-09-27T01:36:44;21.20;55.90
65826;DHT22;52586;-43.152;172.732;2022-09-27T01:39:37;21.20;55.80
65826;DHT22;52586;-43.152;172.732;2022-09-27T01:42:13;21.20;55.60
65826;DHT22;52586;-43.152;172.732;2022-09-27T01:44:49;21.30;55.50
65826;DHT22;52586;-43.152;172.732;2022-09-27T01:47:27;21.30;55.50
65826;DHT22;52586;-43.152;172.732;2022-09-27T01:50:01;21.40;55.50
65826;DHT22;52586;-43.152;172.732;2022-09-27T01:52:36;21.40;55.40
65826;DHT22;52586;-43.152;172.732;2022-09-27T01:55:10;21.40;55.30
65826;DHT22;52586;-43.152;172.732;2022-09-27T01:57:48;21.50;55.30
65826;DHT22;52586;-43.152;172.732;2022-09-27T02:00:20;21.50;55.20
65826;DHT22;52586;-43.152;172.732;2022-09-27T02:02:56;21.50;55.20
65826;DHT22;52586;-43.152;172.732;2022-09-27T02:05:30;21.60;55.30
65826;DHT22;52586;-43.152;172.732;2022-09-27T02:08:05;21.60;55.30
65826;DHT22;52586;-43.152;172.732;2022-09-27T02:10:39;21.60;55.10
65826;DHT22;52586;-43.152;172.732;2022-09-27T02:13:17;21.70;55.10
65826;DHT22;52586;-43.152;172.732;2022-09-27T02:15:55;21.70;54.90
65826;DHT22;52586;-43.152;172.732;2022-09-27T02:18:34;21.70;54.80
65826;DHT22;52586;-43.152;172.732;2022-09-27T02:21:12;21.80;54.70
65826;DHT22;52586;-43.152;172.732;2022-09-27T02:23:46;21.80;54.30
65826;DHT22;52586;-43.152;172.732;2022-09-27T02:26:20;21.90;54.10
65826;DHT22;52586;-43.152;172.732;2022-09-27T02:28:56;21.90;53.70
65826;DHT22;52586;-43.152;172.732;2022-09-27T02:31:29;21.90;53.40
65826;DHT22;52586;-43.152;172.732;2022-09-27T02:34:03;22.00;53.20
65826;DHT22;52586;-43.152;172.732;2022-09-27T02:36:36;22.00;53.00
65826;DHT22;52586;-43.152;172.732;2022-09-27T02:39:07;22.00;52.90
65826;DHT22;52586;-43.152;172.732;2022-09-27T02:41:38;22.10;52.90
65826;DHT22;52586;-43.152;172.732;2022-09-27T02:44:12;22.10;52.80
65826;DHT22;52586;-43.152;172.732;2022-09-27T02:47:03;22.10;52.60
65826;DHT22;52586;-43.152;172.732;2022-09-27T02:49:50;22.20;52.40
65826;DHT22;52586;-43.152;172.732;2022-09-27T02:52:31;22.20;52.30
65826;DHT22;52586;-43.152;172.732;2022-09-27T02:55:11;22.20;52.10
65826;DHT22;52586;-43.152;172.732;2022-09-27T02:57:51;22.30;52.20
65826;DHT22;52586;-43.152;172.732;2022-09-27T03:00:31;22.30;51.90
65826;DHT22;52586;-43.152;172.732;2022-09-27T03:03:08;22.40;52.00
65826;DHT22;52586;-43.152;172.732;2022-09-27T03:05:44;22.40;51.90
65826;DHT22;52586;-43.152;172.732;2022-09-27T03:08:16;22.40;52.10
65826;DHT22;52586;-43.152;172.732;2022-09-27T03:10:47;22.50;52.20
65826;DHT22;52586;-43.152;172.732;2022-09-27T03:13:18;22.50;52.20
65826;DHT22;52586;-43.152;172.732;2022-09-27T03:15:49;22.60;52.20
65826;DHT22;52586;-43.152;172.732;2022-09-27T03:18:20;22.60;52.10
65826;DHT22;52586;-43.152;172.732;2022-09-27T03:20:52;22.60;52.10
65826;DHT22;52586;-43.152;172.732;2022-09-27T03:23:23;22.60;51.90
65826;DHT22;52586;-43.152;172.732;2022-09-27T03:25:54;22.70;51.90
65826;DHT22;52586;-43.152;172.732;2022-09-27T03:28:24;22.70;51.90
65826;DHT22;52586;-43.152;172.732;2022-09-27T03:30:56;22.80;51.90
65826;DHT22;52586;-43.152;172.732;2022-09-27T03:33:27;22.80;52.00
65826;DHT22;52586;-43.152;172.732;2022-09-27T03:36:00;22.80;51.90
65826;DHT22;52586;-43.152;172.732;2022-09-27T03:38:30;22.90;52.00
65826;DHT22;52586;-43.152;172.732;2022-09-27T03:41:01;22.90;52.00
65826;DHT22;52586;-43.152;172.732;2022-09-27T03:43:32;22.90;52.00
65826;DHT22;52586;-43.152;172.732;2022-09-27T03:46:03;22.90;52.10
65826;DHT22;52586;-43.152;172.732;2022-09-27T03:48:34;23.00;52.00
65826;DHT22;52586;-43.152;172.732;2022-09-27T03:51:06;23.00;52.10
65826;DHT22;52586;-43.152;172.732;2022-09-27T03:53:38;23.00;52.20
65826;DHT22;52586;-43.152;172.732;2022-09-27T03:56:09;23.00;52.30
65826;DHT22;52586;-43.152;172.732;2022-09-27T03:58:40;23.00;52.40
65826;DHT22;52586;-43.152;172.732;2022-09-27T04:01:11;23.10;52.40
65826;DHT22;52586;-43.152;172.732;2022-09-27T04:03:42;23.10;52.40
65826;DHT22;52586;-43.152;172.732;2022-09-27T04:06:15;23.10;52.40
65826;DHT22;52586;-43.152;172.732;2022-09-27T04:08:45;23.10;52.40
65826;DHT22;52586;-43.152;172.732;2022-09-27T04:11:16;23.10;52.40
65826;DHT22;52586;-43.152;172.732;2022-09-27T04:13:47;23.10;52.40
65826;DHT22;52586;-43.152;172.732;2022-09-27T04:16:18;23.10;52.40
65826;DHT22;52586;-43.152;172.732;2022-09-27T04:18:48;23.10;52.30
65826;DHT22;52586;-43.152;172.732;2022-09-27T04:21:21;23.10;48.90
65826;DHT22;52586;-43.152;172.732;2022-09-27T04:23:52;23.10;46.10
65826;DHT22;52586;-43.152;172.732;2022-09-27T04:26:22;23.00;46.00
65826;DHT22;52586;-43.152;172.732;2022-09-27T04:28:54;23.00;46.40
65826;DHT22;52586;-43.152;172.732;2022-09-27T04:31:25;22.90;46.90
65826;DHT22;52586;-43.152;172.732;2022-09-27T04:33:56;22.90;47.60
65826;DHT22;52586;-43.152;172.732;2022-09-27T04:36:28;22.80;47.80
65826;DHT22;52586;-43.152;172.732;2022-09-27T04:38:59;22.80;48.20
65826;DHT22;52586;-43.152;172.732;2022-09-27T04:41:30;22.80;48.20
65826;DHT22;52586;-43.152;172.732;2022-09-27T04:44:02;22.80;49.50
65826;DHT22;52586;-43.152;172.732;2022-09-27T04:46:33;22.70;49.40
65826;DHT22;52586;-43.152;172.732;2022-09-27T04:49:04;22.80;49.70
65826;DHT22;52586;-43.152;172.732;2022-09-27T04:51:37;22.70;49.60
65826;DHT22;52586;-43.152;172.732;2022-09-27T04:54:07;22.70;49.70
65826;DHT22;52586;-43.152;172.732;2022-09-27T04:56:38;22.70;49.90
65826;DHT22;52586;-43.152;172.732;2022-09-27T04:59:09;22.70;49.70
65826;DHT22;52586;-43.152;172.732;2022-09-27T05:01:40;22.70;49.70
65826;DHT22;52586;-43.152;172.732;2022-09-27T05:04:11;22.70;49.70
65826;DHT22;52586;-43.152;172.732;2022-09-27T05:06:44;22.70;49.50
65826;DHT22;52586;-43.152;172.732;2022-09-27T05:09:15;22.70;49.50
65826;DHT22;52586;-43.152;172.732;2022-09-27T05:11:46;22.70;49.50
65826;DHT22;52586;-43.152;172.732;2022-09-27T05:14:16;22.70;49.60
65826;DHT22;52586;-43.152;172.732;2022-09-27T05:16:47;22.70;49.90
65826;DHT22;52586;-43.152;172.732;2022-09-27T05:19:19;22.70;50.00
65826;DHT22;52586;-43.152;172.732;2022-09-27T05:21:51;22.70;50.10
65826;DHT22;52586;-43.152;172.732;2022-09-27T05:24:22;22.70;50.30
65826;DHT22;52586;-43.152;172.732;2022-09-27T05:26:54;22.70;50.20
65826;DHT22;52586;-43.152;172.732;2022-09-27T05:29:25;22.70;50.40
65826;DHT22;52586;-43.152;172.732;2022-09-27T05:31:56;22.60;50.30
65826;DHT22;52586;-43.152;172.732;2022-09-27T05:34:26;22.60;50.30
65826;DHT22;52586;-43.152;172.732;2022-09-27T05:37:01;22.70;50.30
65826;DHT22;52586;-43.152;172.732;2022-09-27T05:39:31;22.60;50.20
65826;DHT22;52586;-43.152;172.732;2022-09-27T05:42:02;22.60;50.10
65826;DHT22;52586;-43.152;172.732;2022-09-27T05:44:35;22.60;50.10
65826;DHT22;52586;-43.152;172.732;2022-09-27T05:47:06;22.60;50.60
65826;DHT22;52586;-43.152;172.732;2022-09-27T05:49:37;22.60;50.50
65826;DHT22;52586;-43.152;172.732;2022-09-27T05:52:10;22.60;50.60
65826;DHT22;52586;-43.152;172.732;2022-09-27T05:54:40;22.60;50.60
65826;DHT22;52586;-43.152;172.732;2022-09-27T05:57:11;22.50;50.50
65826;DHT22;52586;-43.152;172.732;2022-09-27T05:59:42;22.50;50.70
65826;DHT22;52586;-43.152;172.732;2022-09-27T06:02:13;22.50;50.70
65826;DHT22;52586;-43.152;172.732;2022-09-27T06:04:45;22.50;50.70
65826;DHT22;52586;-43.152;172.732;2022-09-27T06:07:17;22.50;50.70
65826;DHT22;52586;-43.152;172.732;2022-09-27T06:09:48;22.50;50.70
65826;DHT22;52586;-43.152;172.732;2022-09-27T06:12:19;22.50;50.80
65826;DHT22;52586;-43.152;172.732;2022-09-27T06:14:49;22.40;51.40
65826;DHT22;52586;-43.152;172.732;2022-09-27T06:17:20;22.40;50.90
65826;DHT22;52586;-43.152;172.732;2022-09-27T06:19:51;22.40;50.90
65826;DHT22;52586;-43.152;172.732;2022-09-27T06:22:23;22.40;51.00
65826;DHT22;52586;-43.152;172.732;2022-09-27T06:24:54;22.40;51.00
65826;DHT22;52586;-43.152;172.732;2022-09-27T06:27:25;22.40;51.00
65826;DHT22;52586;-43.152;172.732;2022-09-27T06:29:55;22.40;51.10
65826;DHT22;52586;-43.152;172.732;2022-09-27T06:32:26;22.40;51.10
65826;DHT22;52586;-43.152;172.732;2022-09-27T06:34:57;22.30;51.00
65826;DHT22;52586;-43.152;172.732;2022-09-27T06:37:29;22.30;51.00
65826;DHT22;52586;-43.152;172.732;2022-09-27T06:40:00;22.30;51.10
65826;DHT22;52586;-43.152;172.732;2022-09-27T06:42:31;22.30;51.20
65826;DHT22;52586;-43.152;172.732;2022-09-27T06:45:02;22.30;51.20
65826;DHT22;52586;-43.152;172.732;2022-09-27T06:47:36;22.20;51.10
65826;DHT22;52586;-43.152;172.732;2022-09-27T06:50:07;22.20;51.30
65826;DHT22;52586;-43.152;172.732;2022-09-27T06:52:47;22.20;51.30
65826;DHT22;52586;-43.152;172.732;2022-09-27T06:55:17;22.20;51.30
65826;DHT22;52586;-43.152;172.732;2022-09-27T06:57:48;22.20;51.30
65826;DHT22;52586;-43.152;172.732;2022-09-27T07:00:35;22.20;51.30
65826;DHT22;52586;-43.152;172.732;2022-09-27T07:03:05;22.20;51.40
65826;DHT22;52586;-43.152;172.732;2022-09-27T07:05:36;22.20;51.30
65826;DHT22;52586;-43.152;172.732;2022-09-27T07:08:11;22.10;51.40
65826;DHT22;52586;-43.152;172.732;2022-09-27T07:10:41;22.10;51.40
65826;DHT22;52586;-43.152;172.732;2022-09-27T07:13:12;22.10;51.40
65826;DHT22;52586;-43.152;172.732;2022-09-27T07:15:43;22.10;51.50
65826;DHT22;52586;-43.152;172.732;2022-09-27T07:18:13;22.10;51.50
65826;DHT22;52586;-43.152;172.732;2022-09-27T07:20:44;22.00;51.50
65826;DHT22;52586;-43.152;172.732;2022-09-27T07:23:17;22.00;51.50
65826;DHT22;52586;-43.152;172.732;2022-09-27T07:25:47;22.00;51.50
65826;DHT22;52586;-43.152;172.732;2022-09-27T07:28:19;22.00;51.50
65826;DHT22;52586;-43.152;172.732;2022-09-27T07:30:53;22.00;51.50
65826;DHT22;52586;-43.152;172.732;2022-09-27T07:33:24;22.00;51.50
65826;DHT22;52586;-43.152;172.732;2022-09-27T07:35:55;21.90;51.60
65826;DHT22;52586;-43.152;172.732;2022-09-27T07:38:28;21.90;51.70
65826;DHT22;52586;-43.152;172.732;2022-09-27T07:40:59;21.90;51.70
65826;DHT22;52586;-43.152;172.732;2022-09-27T07:43:34;21.80;51.70
65826;DHT22;52586;-43.152;172.732;2022-09-27T07:46:05;21.80;51.80
65826;DHT22;52586;-43.152;172.732;2022-09-27T07:48:36;21.80;51.80
65826;DHT22;52586;-43.152;172.732;2022-09-27T07:51:06;21.70;51.70
65826;DHT22;52586;-43.152;172.732;2022-09-27T07:53:40;21.70;51.80
65826;DHT22;52586;-43.152;172.732;2022-09-27T07:56:11;21.70;51.80
65826;DHT22;52586;-43.152;172.732;2022-09-27T07:58:42;21.70;51.80
65826;DHT22;52586;-43.152;172.732;2022-09-27T08:01:12;21.70;51.80
65826;DHT22;52586;-43.152;172.732;2022-09-27T08:03:43;21.60;51.70
65826;DHT22;52586;-43.152;172.732;2022-09-27T08:06:14;21.60;51.80
65826;DHT22;52586;-43.152;172.732;2022-09-27T08:08:47;21.60;51.80
65826;DHT22;52586;-43.152;172.732;2022-09-27T08:11:18;21.60;51.90
65826;DHT22;52586;-43.152;172.732;2022-09-27T08:13:49;21.50;51.90
65826;DHT22;52586;-43.152;172.732;2022-09-27T08:16:21;21.50;52.00
65826;DHT22;52586;-43.152;172.732;2022-09-27T08:18:51;21.50;52.00
65826;DHT22;52586;-43.152;172.732;2022-09-27T08:21:22;21.40;52.00
65826;DHT22;52586;-43.152;172.732;2022-09-27T08:23:55;21.40;52.10
65826;DHT22;52586;-43.152;172.732;2022-09-27T08:26:27;21.40;52.20
65826;DHT22;52586;-43.152;172.732;2022-09-27T08:28:58;21.40;52.20
65826;DHT22;52586;-43.152;172.732;2022-09-27T08:31:29;21.40;52.20
65826;DHT22;52586;-43.152;172.732;2022-09-27T08:33:59;21.40;52.20
65826;DHT22;52586;-43.152;172.732;2022-09-27T08:36:30;21.40;52.20
65826;DHT22;52586;-43.152;172.732;2022-09-27T08:39:04;21.40;52.20
65826;DHT22;52586;-43.152;172.732;2022-09-27T08:41:37;21.30;52.20
65826;DHT22;52586;-43.152;172.732;2022-09-27T08:44:15;21.30;52.20
65826;DHT22;52586;-43.152;172.732;2022-09-27T08:46:55;21.30;52.30
65826;DHT22;52586;-43.152;172.732;2022-09-27T08:49:31;21.20;52.30
65826;DHT22;52586;-43.152;172.732;2022-09-27T08:52:05;21.20;52.30
65826;DHT22;52586;-43.152;172.732;2022-09-27T08:54:39;21.20;52.30
65826;DHT22;52586;-43.152;172.732;2022-09-27T08:57:11;21.20;52.30
65826;DHT22;52586;-43.152;172.732;2022-09-27T08:59:45;21.20;52.30
65826;DHT22;52586;-43.152;172.732;2022-09-27T09:02:19;21.10;52.40
65826;DHT22;52586;-43.152;172.732;2022-09-27T09:04:53;21.10;52.30
65826;DHT22;52586;-43.152;172.732;2022-09-27T09:07:43;21.10;52.40
65826;DHT22;52586;-43.152;172.732;2022-09-27T09:10:32;21.10;52.30
65826;DHT22;52586;-43.152;172.732;2022-09-27T09:13:30;21.10;52.30
65826;DHT22;52586;-43.152;172.732;2022-09-27T09:16:06;21.10;52.40
65826;DHT22;52586;-43.152;172.732;2022-09-27T09:18:51;21.00;52.40
65826;DHT22;52586;-43.152;172.732;2022-09-27T09:21:32;20.90;52.40
65826;DHT22;52586;-43.152;172.732;2022-09-27T09:24:27;20.90;52.40
65826;DHT22;52586;-43.152;172.732;2022-09-27T09:27:08;20.90;52.50
65826;DHT22;52586;-43.152;172.732;2022-09-27T09:29:58;20.90;52.50
65826;DHT22;52586;-43.152;172.732;2022-09-27T09:32:37;20.90;52.50
65826;DHT22;52586;-43.152;172.732;2022-09-27T09:35:16;20.80;52.40
65826;DHT22;52586;-43.152;172.732;2022-09-27T09:37:50;20.80;52.40
65826;DHT22;52586;-43.152;172.732;2022-09-27T09:40:24;20.80;52.40
65826;DHT22;52586;-43.152;172.732;2022-09-27T09:42:59;20.80;52.40
65826;DHT22;52586;-43.152;172.732;2022-09-27T09:45:35;20.80;52.40
65826;DHT22;52586;-43.152;172.732;2022-09-27T09:48:13;20.70;52.40
65826;DHT22;52586;-43.152;172.732;2022-09-27T09:50:48;20.70;52.50
65826;DHT22;52586;-43.152;172.732;2022-09-27T09:53:27;20.70;52.60
65826;DHT22;52586;-43.152;172.732;2022-09-27T09:56:04;20.70;52.60
65826;DHT22;52586;-43.152;172.732;2022-09-27T09:58:45;20.60;52.70
65826;DHT22;52586;-43.152;172.732;2022-09-27T10:01:19;20.60;52.60
65826;DHT22;52586;-43.152;172.732;2022-09-27T10:03:51;20.60;52.60
65826;DHT22;52586;-43.152;172.732;2022-09-27T10:06:23;20.60;52.60
65826;DHT22;52586;-43.152;172.732;2022-09-27T10:08:55;20.50;52.60
65826;DHT22;52586;-43.152;172.732;2022-09-27T10:11:28;20.50;52.60
65826;DHT22;52586;-43.152;172.732;2022-09-27T10:14:04;20.50;52.60
65826;DHT22;52586;-43.152;172.732;2022-09-27T10:16:35;20.50;52.60
65826;DHT22;52586;-43.152;172.732;2022-09-27T10:19:07;20.40;52.70
65826;DHT22;52586;-43.152;172.732;2022-09-27T10:21:41;20.40;52.70
65826;DHT22;52586;-43.152;172.732;2022-09-27T10:24:13;20.40;52.70
65826;DHT22;52586;-43.152;172.732;2022-09-27T10:26:46;20.30;52.70
65826;DHT22;52586;-43.152;172.732;2022-09-27T10:29:26;20.30;53.30
65826;DHT22;52586;-43.152;172.732;2022-09-27T10:31:59;20.30;52.80
65826;DHT22;52586;-43.152;172.732;2022-09-27T10:34:33;20.30;52.70
65826;DHT22;52586;-43.152;172.732;2022-09-27T10:37:15;20.30;52.80
65826;DHT22;52586;-43.152;172.732;2022-09-27T10:39:47;20.20;52.70
65826;DHT22;52586;-43.152;172.732;2022-09-27T10:42:31;20.20;52.70
65826;DHT22;52586;-43.152;172.732;2022-09-27T10:45:24;20.20;52.80
65826;DHT22;52586;-43.152;172.732;2022-09-27T10:47:56;20.10;52.70
65826;DHT22;52586;-43.152;172.732;2022-09-27T10:50:29;20.10;52.80
65826;DHT22;52586;-43.152;172.732;2022-09-27T10:53:04;20.10;52.80
65826;DHT22;52586;-43.152;172.732;2022-09-27T10:55:36;20.00;52.90
65826;DHT22;52586;-43.152;172.732;2022-09-27T10:58:13;20.00;52.90
65826;DHT22;52586;-43.152;172.732;2022-09-27T11:00:57;20.00;52.90
65826;DHT22;52586;-43.152;172.732;2022-09-27T11:03:30;20.00;52.90
65826;DHT22;52586;-43.152;172.732;2022-09-27T11:06:19;20.00;52.90
65826;DHT22;52586;-43.152;172.732;2022-09-27T11:09:08;20.00;52.90
65826;DHT22;52586;-43.152;172.732;2022-09-27T11:11:40;20.00;52.90
65826;DHT22;52586;-43.152;172.732;2022-09-27T11:14:19;19.90;52.80
65826;DHT22;52586;-43.152;172.732;2022-09-27T11:17:05;19.90;52.90
65826;DHT22;52586;-43.152;172.732;2022-09-27T11:19:57;19.80;52.90
65826;DHT22;52586;-43.152;172.732;2022-09-27T11:22:50;19.80;53.00
65826;DHT22;52586;-43.152;172.732;2022-09-27T11:25:33;19.80;53.00
65826;DHT22;52586;-43.152;172.732;2022-09-27T11:28:15;19.70;53.00
65826;DHT22;52586;-43.152;172.732;2022-09-27T11:30:57;19.70;53.10
65826;DHT22;52586;-43.152;172.732;2022-09-27T11:33:50;19.70;53.00
65826;DHT22;52586;-43.152;172.732;2022-09-27T11:36:37;19.70;53.00
65826;DHT22;52586;-43.152;172.732;2022-09-27T11:39:12;19.70;53.00
65826;DHT22;52586;-43.152;172.732;2022-09-27T11:42:01;19.70;53.00
65826;DHT22;52586;-43.152;172.732;2022-09-27T11:44:47;19.70;53.10
65826;DHT22;52586;-43.152;172.732;2022-09-27T11:47:27;19.60;53.00
65826;DHT22;52586;-43.152;172.732;2022-09-27T11:53:04;19.60;53.10
65826;DHT22;52586;-43.152;172.732;2022-09-27T11:55:44;19.50;53.10
65826;DHT22;52586;-43.152;172.732;2022-09-27T11:58:26;19.50;53.20
65826;DHT22;52586;-43.152;172.732;2022-09-27T12:01:05;19.50;53.20
65826;DHT22;52586;-43.152;172.732;2022-09-27T12:06:44;19.50;53.20
65826;DHT22;52586;-43.152;172.732;2022-09-27T12:09:19;19.50;53.20
65826;DHT22;52586;-43.152;172.732;2022-09-27T12:11:54;19.50;53.20
65826;DHT22;52586;-43.152;172.732;2022-09-27T12:14:32;19.50;53.10
65826;DHT22;52586;-43.152;172.732;2022-09-27T12:17:07;19.40;53.10
65826;DHT22;52586;-43.152;172.732;2022-09-27T12:19:43;19.40;53.20
65826;DHT22;52586;-43.152;172.732;2022-09-27T12:22:22;19.30;53.20
65826;DHT22;52586;-43.152;172.732;2022-09-27T12:24:55;19.30;53.20
65826;DHT22;52586;-43.152;172.732;2022-09-27T12:27:33;19.30;53.30
65826;DHT22;52586;-43.152;172.732;2022-09-27T12:30:05;19.30;53.30
65826;DHT22;52586;-43.152;172.732;2022-09-27T12:32:41;19.30;53.30
65826;DHT22;52586;-43.152;172.732;2022-09-27T12:35:17;19.30;53.30
65826;DHT22;52586;-43.152;172.732;2022-09-27T12:37:56;19.30;53.30
65826;DHT22;52586;-43.152;172.732;2022-09-27T12:40:30;19.30;53.30
65826;DHT22;52586;-43.152;172.732;2022-09-27T12:43:05;19.30;53.30
65826;DHT22;52586;-43.152;172.732;2022-09-27T12:45:43;19.20;53.20
65826;DHT22;52586;-43.152;172.732;2022-09-27T12:48:21;19.20;53.20
65826;DHT22;52586;-43.152;172.732;2022-09-27T12:50:54;19.20;53.20
65826;DHT22;52586;-43.152;172.732;2022-09-27T12:53:33;19.10;53.30
65826;DHT22;52586;-43.152;172.732;2022-09-27T12:56:22;19.10;53.30
65826;DHT22;52586;-43.152;172.732;2022-09-27T13:05:43;19.10;53.30
65826;DHT22;52586;-43.152;172.732;2022-09-27T13:08:32;19.10;53.30
65826;DHT22;52586;-43.152;172.732;2022-09-27T13:11:10;19.10;53.30
65826;DHT22;52586;-43.152;172.732;2022-09-27T13:13:45;19.10;53.30
65826;DHT22;52586;-43.152;172.732;2022-09-27T13:16:16;19.00;53.30
65826;DHT22;52586;-43.152;172.732;2022-09-27T13:18:58;19.00;53.30
65826;DHT22;52586;-43.152;172.732;2022-09-27T13:21:54;19.00;53.30
65826;DHT22;52586;-43.152;172.732;2022-09-27T13:24:57;19.00;53.40
65826;DHT22;52586;-43.152;172.732;2022-09-27T13:27:39;18.90;53.40
65826;DHT22;52586;-43.152;172.732;2022-09-27T13:33:30;18.90;53.40
65826;DHT22;52586;-43.152;172.732;2022-09-27T13:36:19;18.90;53.30
65826;DHT22;52586;-43.152;172.732;2022-09-27T13:39:03;18.90;53.30
65826;DHT22;52586;-43.152;172.732;2022-09-27T13:42:03;18.80;53.30
65826;DHT22;52586;-43.152;172.732;2022-09-27T13:44:45;18.80;53.30
65826;DHT22;52586;-43.152;172.732;2022-09-27T13:47:26;18.80;53.40
65826;DHT22;52586;-43.152;172.732;2022-09-27T13:50:11;18.80;53.40
65826;DHT22;52586;-43.152;172.732;2022-09-27T13:52:44;18.70;53.40
65826;DHT22;52586;-43.152;172.732;2022-09-27T13:55:41;18.70;53.40
65826;DHT22;52586;-43.152;172.732;2022-09-27T13:58:36;18.70;53.50
65826;DHT22;52586;-43.152;172.732;2022-09-27T14:01:26;18.70;53.50
65826;DHT22;52586;-43.152;172.732;2022-09-27T14:04:02;18.70;53.40
65826;DHT22;52586;-43.152;172.732;2022-09-27T14:06:35;18.70;53.40
65826;DHT22;52586;-43.152;172.732;2022-09-27T14:09:17;18.70;53.40
65826;DHT22;52586;-43.152;172.732;2022-09-27T14:11:51;18.70;53.40
65826;DHT22;52586;-43.152;172.732;2022-09-27T14:14:26;18.70;53.40
65826;DHT22;52586;-43.152;172.732;2022-09-27T14:16:59;18.70;53.40
65826;DHT22;52586;-43.152;172.732;2022-09-27T14:19:30;18.60;53.40
65826;DHT22;52586;-43.152;172.732;2022-09-27T14:22:02;18.60;53.50
65826;DHT22;52586;-43.152;172.732;2022-09-27T14:24:44;18.60;53.50
65826;DHT22;52586;-43.152;172.732;2022-09-27T14:27:17;18.60;53.50
65826;DHT22;52586;-43.152;172.732;2022-09-27T14:29:51;18.60;53.50
65826;DHT22;52586;-43.152;172.732;2022-09-27T14:32:24;18.60;53.50
65826;DHT22;52586;-43.152;172.732;2022-09-27T14:35:06;18.60;53.50
65826;DHT22;52586;-43.152;172.732;2022-09-27T14:37:59;18.60;53.40
65826;DHT22;52586;-43.152;172.732;2022-09-27T14:40:30;18.60;53.40
65826;DHT22;52586;-43.152;172.732;2022-09-27T14:43:02;18.50;53.30
65826;DHT22;52586;-43.152;172.732;2022-09-27T14:45:36;18.50;53.40
65826;DHT22;52586;-43.152;172.732;2022-09-27T14:48:19;18.50;53.50
65826;DHT22;52586;-43.152;172.732;2022-09-27T14:50:58;18.50;53.50
65826;DHT22;52586;-43.152;172.732;2022-09-27T14:53:31;18.50;53.60
65826;DHT22;52586;-43.152;172.732;2022-09-27T14:56:03;18.50;53.60
65826;DHT22;52586;-43.152;172.732;2022-09-27T14:58:37;18.40;53.50
65826;DHT22;52586;-43.152;172.732;2022-09-27T15:01:16;18.50;53.50
65826;DHT22;52586;-43.152;172.732;2022-09-27T15:03:48;18.40;53.50
65826;DHT22;52586;-43.152;172.732;2022-09-27T15:06:20;18.50;53.50
65826;DHT22;52586;-43.152;172.732;2022-09-27T15:08:51;18.50;53.50
65826;DHT22;52586;-43.152;172.732;2022-09-27T15:11:22;18.50;53.50
65826;DHT22;52586;-43.152;172.732;2022-09-27T15:13:53;18.40;53.40
65826;DHT22;52586;-43.152;172.732;2022-09-27T15:16:27;18.40;54.10
65826;DHT22;52586;-43.152;172.732;2022-09-27T15:19:02;18.40;53.50
65826;DHT22;52586;-43.152;172.732;2022-09-27T15:21:35;18.40;53.60
65826;DHT22;52586;-43.152;172.732;2022-09-27T15:24:33;18.40;53.70
65826;DHT22;52586;-43.152;172.732;2022-09-27T15:26:57;18.30;53.60
65826;DHT22;52586;-43.152;172.732;2022-09-27T15:29:28;18.30;53.60
65826;DHT22;52586;-43.152;172.732;2022-09-27T15:32:03;18.30;53.60
65826;DHT22;52586;-43.152;172.732;2022-09-27T15:34:35;18.30;53.50
65826;DHT22;52586;-43.152;172.732;2022-09-27T15:37:06;18.30;53.50
65826;DHT22;52586;-43.152;172.732;2022-09-27T15:39:38;18.30;53.50
65826;DHT22;52586;-43.152;172.732;2022-09-27T15:42:09;18.30;53.50
65826;DHT22;52586;-43.152;172.732;2022-09-27T15:44:47;18.30;53.50
65826;DHT22;52586;-43.152;172.732;2022-09-27T15:47:44;18.30;53.60
65826;DHT22;52586;-43.152;172.732;2022-09-27T15:50:36;18.30;53.60
65826;DHT22;52586;-43.152;172.732;2022-09-27T15:53:10;18.20;53.50